sensor_id;sensor_type;location;lat;lon;timestamp;P1;P2;P0
34176;PMS7003;20450;49.074;9.158;2022-09-01T00:01:58;8.00;8.00;5.00
34176;PMS7003;20450;49.074;9.158;2022-09-01T00:04:27;10.25;10.25;9.50
34176;PMS7003;20450;49.074;9.158;2022-09-01T00:06:54;12.00;10.75;9.25
34176;PMS7003;20450;49.074;9.158;2022-09-01T00:09:22;12.75;11.75;10.25
34176;PMS7003;20450;49.074;9.158;2022-09-01T00:11:50;10.50;10.00;9.00
34176;PMS7003;20450;49.074;9.158;2022-09-01T00:14:20;9.00;8.00;5.50
34176;PMS7003;20450;49.074;9.158;2022-09-01T00:16:56;11.00;11.00;8.75
34176;PMS7003;20450;49.074;9.158;2022-09-01T00:19:25;8.50;8.50;7.00
34176;PMS7003;20450;49.074;9.158;2022-09-01T00:21:53;12.75;12.00;10.50
34176;PMS7003;20450;49.074;9.158;2022-09-01T00:24:21;7.75;7.75;6.25
34176;PMS7003;20450;49.074;9.158;2022-09-01T00:26:49;12.25;9.75;9.00
34176;PMS7003;20450;49.074;9.158;2022-09-01T00:29:16;12.00;11.25;9.50
34176;PMS7003;20450;49.074;9.158;2022-09-01T00:31:45;11.50;11.50;9.00
34176;PMS7003;20450;49.074;9.158;2022-09-01T00:34:12;11.00;11.00;8.75
34176;PMS7003;20450;49.074;9.158;2022-09-01T00:36:41;11.25;11.25;8.25
34176;PMS7003;20450;49.074;9.158;2022-09-01T00:39:09;13.50;12.25;9.00
34176;PMS7003;20450;49.074;9.158;2022-09-01T00:41:37;9.25;9.25;6.50
34176;PMS7003;20450;49.074;9.158;2022-09-01T00:44:07;11.50;11.50;9.75
34176;PMS7003;20450;49.074;9.158;2022-09-01T00:46:39;11.50;11.00;9.00
34176;PMS7003;20450;49.074;9.158;2022-09-01T00:49:17;10.25;10.00;8.25
34176;PMS7003;20450;49.074;9.158;2022-09-01T00:51:51;11.25;10.75;8.75
34176;PMS7003;20450;49.074;9.158;2022-09-01T01:16:41;10.25;9.50;8.50
34176;PMS7003;20450;49.074;9.158;2022-09-01T01:19:15;13.00;13.00;10.75
34176;PMS7003;20450;49.074;9.158;2022-09-01T01:21:52;14.75;13.50;10.25
34176;PMS7003;20450;49.074;9.158;2022-09-01T01:24:25;11.50;10.50;8.50
34176;PMS7003;20450;49.074;9.158;2022-09-01T01:26:54;10.75;10.75;9.75
34176;PMS7003;20450;49.074;9.158;2022-09-01T01:29:22;11.75;11.75;10.00
34176;PMS7003;20450;49.074;9.158;2022-09-01T01:31:50;13.50;13.00;11.50
34176;PMS7003;20450;49.074;9.158;2022-09-01T01:34:20;12.00;11.75;9.50
34176;PMS7003;20450;49.074;9.158;2022-09-01T01:36:48;11.50;11.50;9.00
34176;PMS7003;20450;49.074;9.158;2022-09-01T01:39:18;12.00;12.00;9.25
34176;PMS7003;20450;49.074;9.158;2022-09-01T01:41:50;11.75;10.50;9.00
34176;PMS7003;20450;49.074;9.158;2022-09-01T01:44:23;12.25;12.25;9.75
34176;PMS7003;20450;49.074;9.158;2022-09-01T01:46:55;10.50;10.50;8.50
34176;PMS7003;20450;49.074;9.158;2022-09-01T01:49:24;12.00;12.00;10.50
34176;PMS7003;20450;49.074;9.158;2022-09-01T01:51:53;10.75;10.75;9.00
34176;PMS7003;20450;49.074;9.158;2022-09-01T01:54:33;11.50;11.50;9.75
34176;PMS7003;20450;49.074;9.158;2022-09-01T01:57:31;12.50;10.25;9.50
34176;PMS7003;20450;49.074;9.158;2022-09-01T01:59:59;11.25;11.25;10.00
34176;PMS7003;20450;49.074;9.158;2022-09-01T02:02:27;12.75;12.75;9.50
34176;PMS7003;20450;49.074;9.158;2022-09-01T02:04:54;11.50;11.50;10.25
34176;PMS7003;20450;49.074;9.158;2022-09-01T02:07:21;13.00;13.00;11.50
34176;PMS7003;20450;49.074;9.158;2022-09-01T02:09:48;13.25;12.50;8.75
34176;PMS7003;20450;49.074;9.158;2022-09-01T02:12:15;12.50;11.25;8.25
34176;PMS7003;20450;49.074;9.158;2022-09-01T02:14:43;11.75;11.75;10.50
34176;PMS7003;20450;49.074;9.158;2022-09-01T02:17:13;16.00;13.25;10.25
34176;PMS7003;20450;49.074;9.158;2022-09-01T02:19:40;16.25;16.00;12.25
34176;PMS7003;20450;49.074;9.158;2022-09-01T02:22:07;18.00;15.50;11.50
34176;PMS7003;20450;49.074;9.158;2022-09-01T02:24:34;14.00;14.00;12.25
34176;PMS7003;20450;49.074;9.158;2022-09-01T02:27:01;15.00;15.00;12.50
34176;PMS7003;20450;49.074;9.158;2022-09-01T02:29:29;13.50;13.50;11.25
34176;PMS7003;20450;49.074;9.158;2022-09-01T02:32:02;14.00;14.00;11.50
34176;PMS7003;20450;49.074;9.158;2022-09-01T02:34:29;15.00;15.00;12.00
34176;PMS7003;20450;49.074;9.158;2022-09-01T02:36:57;16.75;15.00;12.25
34176;PMS7003;20450;49.074;9.158;2022-09-01T02:39:25;17.00;15.75;12.00
34176;PMS7003;20450;49.074;9.158;2022-09-01T02:41:56;15.25;15.25;11.00
34176;PMS7003;20450;49.074;9.158;2022-09-01T02:44:26;10.25;9.50;8.75
34176;PMS7003;20450;49.074;9.158;2022-09-01T02:46:55;10.50;10.50;8.50
34176;PMS7003;20450;49.074;9.158;2022-09-01T02:49:24;12.50;12.00;9.25
34176;PMS7003;20450;49.074;9.158;2022-09-01T02:51:53;12.75;12.75;10.50
34176;PMS7003;20450;49.074;9.158;2022-09-01T02:54:22;13.25;13.25;9.75
34176;PMS7003;20450;49.074;9.158;2022-09-01T02:56:57;11.50;11.50;9.00
34176;PMS7003;20450;49.074;9.158;2022-09-01T03:02:58;13.50;13.50;12.25
34176;PMS7003;20450;49.074;9.158;2022-09-01T03:05:35;15.75;15.75;11.75
34176;PMS7003;20450;49.074;9.158;2022-09-01T03:08:11;16.00;15.00;11.00
34176;PMS7003;20450;49.074;9.158;2022-09-01T03:10:39;17.25;17.25;12.50
34176;PMS7003;20450;49.074;9.158;2022-09-01T03:13:10;13.00;13.00;11.50
34176;PMS7003;20450;49.074;9.158;2022-09-01T03:15:41;16.75;16.00;12.25
34176;PMS7003;20450;49.074;9.158;2022-09-01T03:18:11;15.25;12.50;10.50
34176;PMS7003;20450;49.074;9.158;2022-09-01T03:20:41;15.25;15.00;12.25
34176;PMS7003;20450;49.074;9.158;2022-09-01T03:23:10;15.00;15.00;12.00
34176;PMS7003;20450;49.074;9.158;2022-09-01T03:25:45;17.33;15.00;11.67
34176;PMS7003;20450;49.074;9.158;2022-09-01T03:28:13;14.00;12.33;10.33
34176;PMS7003;20450;49.074;9.158;2022-09-01T03:30:43;11.67;11.67;8.67
34176;PMS7003;20450;49.074;9.158;2022-09-01T03:33:12;14.75;14.75;12.00
34176;PMS7003;20450;49.074;9.158;2022-09-01T03:35:41;14.25;14.25;11.50
34176;PMS7003;20450;49.074;9.158;2022-09-01T03:38:11;14.75;14.75;11.00
34176;PMS7003;20450;49.074;9.158;2022-09-01T03:40:39;14.50;13.50;10.25
34176;PMS7003;20450;49.074;9.158;2022-09-01T03:43:08;16.75;16.75;12.25
34176;PMS7003;20450;49.074;9.158;2022-09-01T03:45:43;15.75;15.75;13.50
34176;PMS7003;20450;49.074;9.158;2022-09-01T03:48:12;16.25;15.50;12.50
34176;PMS7003;20450;49.074;9.158;2022-09-01T03:50:40;15.25;14.00;11.25
34176;PMS7003;20450;49.074;9.158;2022-09-01T03:53:11;17.75;17.75;13.00
34176;PMS7003;20450;49.074;9.158;2022-09-01T03:55:42;15.33;15.33;12.00
34176;PMS7003;20450;49.074;9.158;2022-09-01T03:58:12;11.25;10.75;9.50
34176;PMS7003;20450;49.074;9.158;2022-09-01T04:00:47;14.50;12.75;11.50
34176;PMS7003;20450;49.074;9.158;2022-09-01T04:03:18;18.33;16.33;13.33
34176;PMS7003;20450;49.074;9.158;2022-09-01T04:05:55;14.75;12.75;10.75
34176;PMS7003;20450;49.074;9.158;2022-09-01T04:08:24;19.25;18.25;13.75
34176;PMS7003;20450;49.074;9.158;2022-09-01T04:10:52;18.33;18.33;13.00
34176;PMS7003;20450;49.074;9.158;2022-09-01T04:13:22;16.50;16.50;12.50
34176;PMS7003;20450;49.074;9.158;2022-09-01T04:15:52;14.00;14.00;12.75
34176;PMS7003;20450;49.074;9.158;2022-09-01T04:18:19;16.67;15.00;12.00
34176;PMS7003;20450;49.074;9.158;2022-09-01T04:20:48;16.25;16.25;12.50
34176;PMS7003;20450;49.074;9.158;2022-09-01T04:23:21;13.00;13.00;10.50
34176;PMS7003;20450;49.074;9.158;2022-09-01T04:25:53;15.00;15.00;12.75
34176;PMS7003;20450;49.074;9.158;2022-09-01T04:28:24;17.00;17.00;13.75
34176;PMS7003;20450;49.074;9.158;2022-09-01T04:30:58;13.50;13.50;11.00
34176;PMS7003;20450;49.074;9.158;2022-09-01T04:33:28;13.75;13.75;12.50
34176;PMS7003;20450;49.074;9.158;2022-09-01T04:35:56;17.00;17.00;12.00
34176;PMS7003;20450;49.074;9.158;2022-09-01T04:38:25;19.25;19.25;15.50
34176;PMS7003;20450;49.074;9.158;2022-09-01T04:40:52;16.00;14.67;12.00
34176;PMS7003;20450;49.074;9.158;2022-09-01T04:43:19;17.00;17.00;14.00
34176;PMS7003;20450;49.074;9.158;2022-09-01T04:45:46;19.67;19.33;16.33
34176;PMS7003;20450;49.074;9.158;2022-09-01T04:48:13;15.00;15.00;12.67
34176;PMS7003;20450;49.074;9.158;2022-09-01T04:50:43;18.25;16.50;12.75
34176;PMS7003;20450;49.074;9.158;2022-09-01T04:53:16;22.00;19.50;15.75
34176;PMS7003;20450;49.074;9.158;2022-09-01T04:55:48;20.33;20.33;14.33
34176;PMS7003;20450;49.074;9.158;2022-09-01T04:58:18;23.00;20.67;16.00
34176;PMS7003;20450;49.074;9.158;2022-09-01T05:00:48;22.33;22.33;16.67
34176;PMS7003;20450;49.074;9.158;2022-09-01T05:03:27;17.67;17.00;13.33
34176;PMS7003;20450;49.074;9.158;2022-09-01T05:05:57;19.00;18.00;14.75
34176;PMS7003;20450;49.074;9.158;2022-09-01T05:12:03;20.00;19.25;13.25
34176;PMS7003;20450;49.074;9.158;2022-09-01T05:16:18;25.67;24.00;17.33
34176;PMS7003;20450;49.074;9.158;2022-09-01T05:32:01;24.00;23.00;16.33
34176;PMS7003;20450;49.074;9.158;2022-09-01T05:34:39;20.25;20.25;15.00
34176;PMS7003;20450;49.074;9.158;2022-09-01T05:37:07;25.75;23.50;16.50
34176;PMS7003;20450;49.074;9.158;2022-09-01T05:39:36;22.67;20.33;16.33
34176;PMS7003;20450;49.074;9.158;2022-09-01T05:42:07;20.33;20.33;16.67
34176;PMS7003;20450;49.074;9.158;2022-09-01T05:44:39;18.33;18.33;14.67
34176;PMS7003;20450;49.074;9.158;2022-09-01T05:47:19;21.25;21.25;15.00
34176;PMS7003;20450;49.074;9.158;2022-09-01T05:49:59;18.50;17.50;11.50
34176;PMS7003;20450;49.074;9.158;2022-09-01T05:55:26;21.75;17.50;14.75
34176;PMS7003;20450;49.074;9.158;2022-09-01T05:57:54;19.50;18.25;14.50
34176;PMS7003;20450;49.074;9.158;2022-09-01T06:00:21;18.25;17.25;14.25
34176;PMS7003;20450;49.074;9.158;2022-09-01T06:02:49;18.50;17.50;13.25
34176;PMS7003;20450;49.074;9.158;2022-09-01T06:05:20;16.75;16.75;12.25
34176;PMS7003;20450;49.074;9.158;2022-09-01T06:07:50;21.75;18.50;13.50
34176;PMS7003;20450;49.074;9.158;2022-09-01T06:10:17;17.25;16.50;13.00
34176;PMS7003;20450;49.074;9.158;2022-09-01T06:12:45;16.25;14.00;11.25
34176;PMS7003;20450;49.074;9.158;2022-09-01T06:15:19;16.25;15.75;12.50
34176;PMS7003;20450;49.074;9.158;2022-09-01T06:17:51;16.75;16.75;13.25
34176;PMS7003;20450;49.074;9.158;2022-09-01T06:20:18;14.60;14.60;11.40
34176;PMS7003;20450;49.074;9.158;2022-09-01T06:22:46;15.20;15.20;11.00
34176;PMS7003;20450;49.074;9.158;2022-09-01T06:25:15;18.60;16.40;13.00
34176;PMS7003;20450;49.074;9.158;2022-09-01T06:27:44;16.40;15.20;13.20
34176;PMS7003;20450;49.074;9.158;2022-09-01T06:30:15;13.80;13.20;10.60
34176;PMS7003;20450;49.074;9.158;2022-09-01T06:33:00;14.40;14.40;10.00
34176;PMS7003;20450;49.074;9.158;2022-09-01T06:35:30;14.60;13.40;10.80
34176;PMS7003;20450;49.074;9.158;2022-09-01T06:37:59;15.20;15.20;10.40
34176;PMS7003;20450;49.074;9.158;2022-09-01T06:40:38;16.80;16.80;12.00
34176;PMS7003;20450;49.074;9.158;2022-09-01T06:43:07;16.60;15.60;12.40
34176;PMS7003;20450;49.074;9.158;2022-09-01T06:45:47;14.40;14.40;10.40
34176;PMS7003;20450;49.074;9.158;2022-09-01T06:49:49;15.40;14.20;11.40
34176;PMS7003;20450;49.074;9.158;2022-09-01T06:56:24;16.00;16.00;12.00
34176;PMS7003;20450;49.074;9.158;2022-09-01T06:59:12;17.20;17.20;13.00
34176;PMS7003;20450;49.074;9.158;2022-09-01T07:01:47;17.20;15.80;12.20
34176;PMS7003;20450;49.074;9.158;2022-09-01T07:09:07;12.60;12.60;10.20
34176;PMS7003;20450;49.074;9.158;2022-09-01T07:12:13;14.00;12.60;9.20
34176;PMS7003;20450;49.074;9.158;2022-09-01T07:14:56;12.20;12.20;9.00
34176;PMS7003;20450;49.074;9.158;2022-09-01T07:17:50;13.80;13.80;11.80
34176;PMS7003;20450;49.074;9.158;2022-09-01T07:20:21;13.20;11.80;10.60
34176;PMS7003;20450;49.074;9.158;2022-09-01T07:22:53;8.40;8.40;5.60
34176;PMS7003;20450;49.074;9.158;2022-09-01T07:25:36;11.20;10.20;8.40
34176;PMS7003;20450;49.074;9.158;2022-09-01T07:28:38;13.40;12.20;9.80
34176;PMS7003;20450;49.074;9.158;2022-09-01T07:31:14;11.40;11.40;10.00
34176;PMS7003;20450;49.074;9.158;2022-09-01T07:34:05;13.00;12.20;9.80
34176;PMS7003;20450;49.074;9.158;2022-09-01T07:37:49;7.20;7.20;6.40
34176;PMS7003;20450;49.074;9.158;2022-09-01T07:41:06;8.80;8.80;6.80
34176;PMS7003;20450;49.074;9.158;2022-09-01T07:44:12;9.60;6.80;5.40
34176;PMS7003;20450;49.074;9.158;2022-09-01T07:46:57;9.60;9.60;8.20
34176;PMS7003;20450;49.074;9.158;2022-09-01T07:49:44;8.00;8.00;5.40
34176;PMS7003;20450;49.074;9.158;2022-09-01T07:52:32;10.20;10.20;8.80
34176;PMS7003;20450;49.074;9.158;2022-09-01T07:55:00;9.80;9.40;7.80
34176;PMS7003;20450;49.074;9.158;2022-09-01T07:57:30;8.40;8.40;7.80
34176;PMS7003;20450;49.074;9.158;2022-09-01T07:59:57;8.80;7.80;6.80
34176;PMS7003;20450;49.074;9.158;2022-09-01T08:02:40;7.20;7.20;5.80
34176;PMS7003;20450;49.074;9.158;2022-09-01T08:05:12;9.40;9.40;8.20
34176;PMS7003;20450;49.074;9.158;2022-09-01T08:07:44;11.00;10.40;8.40
34176;PMS7003;20450;49.074;9.158;2022-09-01T08:10:22;9.40;9.40;7.80
34176;PMS7003;20450;49.074;9.158;2022-09-01T08:12:55;8.20;7.20;6.00
34176;PMS7003;20450;49.074;9.158;2022-09-01T08:15:24;5.80;5.80;5.00
34176;PMS7003;20450;49.074;9.158;2022-09-01T08:18:13;11.00;10.60;8.60
34176;PMS7003;20450;49.074;9.158;2022-09-01T08:20:41;6.40;6.40;6.00
34176;PMS7003;20450;49.074;9.158;2022-09-01T08:23:27;10.80;10.80;7.80
34176;PMS7003;20450;49.074;9.158;2022-09-01T08:25:56;7.20;7.20;4.60
34176;PMS7003;20450;49.074;9.158;2022-09-01T08:28:24;8.00;8.00;7.00
34176;PMS7003;20450;49.074;9.158;2022-09-01T08:30:54;9.80;8.20;7.40
34176;PMS7003;20450;49.074;9.158;2022-09-01T08:33:23;8.00;7.80;6.40
34176;PMS7003;20450;49.074;9.158;2022-09-01T08:35:51;7.40;7.40;5.00
34176;PMS7003;20450;49.074;9.158;2022-09-01T08:38:31;9.40;8.20;7.00
34176;PMS7003;20450;49.074;9.158;2022-09-01T08:41:01;10.00;8.60;7.20
34176;PMS7003;20450;49.074;9.158;2022-09-01T08:47:35;8.80;8.80;6.60
34176;PMS7003;20450;49.074;9.158;2022-09-01T08:50:22;9.60;9.60;7.20
34176;PMS7003;20450;49.074;9.158;2022-09-01T08:53:04;7.40;7.20;5.80
34176;PMS7003;20450;49.074;9.158;2022-09-01T08:55:42;9.00;9.00;7.40
34176;PMS7003;20450;49.074;9.158;2022-09-01T08:58:15;7.60;6.80;6.00
34176;PMS7003;20450;49.074;9.158;2022-09-01T09:01:11;8.20;8.20;6.20
34176;PMS7003;20450;49.074;9.158;2022-09-01T09:03:58;10.00;10.00;8.00
34176;PMS7003;20450;49.074;9.158;2022-09-01T09:06:42;14.60;13.20;10.60
34176;PMS7003;20450;49.074;9.158;2022-09-01T09:09:27;9.20;9.20;7.20
34176;PMS7003;20450;49.074;9.158;2022-09-01T09:12:10;10.20;9.80;7.60
34176;PMS7003;20450;49.074;9.158;2022-09-01T09:14:59;10.20;10.20;9.00
34176;PMS7003;20450;49.074;9.158;2022-09-01T09:17:42;10.60;10.60;9.20
34176;PMS7003;20450;49.074;9.158;2022-09-01T09:20:27;11.20;10.20;7.80
34176;PMS7003;20450;49.074;9.158;2022-09-01T09:22:54;9.40;8.80;7.20
34176;PMS7003;20450;49.074;9.158;2022-09-01T09:25:22;9.60;9.20;7.80
34176;PMS7003;20450;49.074;9.158;2022-09-01T09:27:50;7.20;7.20;6.20
34176;PMS7003;20450;49.074;9.158;2022-09-01T09:30:27;9.80;8.60;6.60
34176;PMS7003;20450;49.074;9.158;2022-09-01T09:32:56;11.40;10.80;9.00
34176;PMS7003;20450;49.074;9.158;2022-09-01T09:35:49;13.25;13.25;9.75
34176;PMS7003;20450;49.074;9.158;2022-09-01T09:38:19;10.60;10.60;9.00
34176;PMS7003;20450;49.074;9.158;2022-09-01T09:40:58;10.50;10.50;7.50
34176;PMS7003;20450;49.074;9.158;2022-09-01T09:43:45;12.25;10.50;8.50
34176;PMS7003;20450;49.074;9.158;2022-09-01T09:46:22;10.50;9.25;7.25
34176;PMS7003;20450;49.074;9.158;2022-09-01T09:49:07;11.75;10.75;8.50
34176;PMS7003;20450;49.074;9.158;2022-09-01T09:51:43;9.50;8.50;7.00
34176;PMS7003;20450;49.074;9.158;2022-09-01T09:54:16;11.00;11.00;8.00
34176;PMS7003;20450;49.074;9.158;2022-09-01T09:57:01;9.50;8.50;6.75
34176;PMS7003;20450;49.074;9.158;2022-09-01T09:59:36;10.50;10.50;8.00
34176;PMS7003;20450;49.074;9.158;2022-09-01T10:02:27;10.50;10.50;9.50
34176;PMS7003;20450;49.074;9.158;2022-09-01T10:05:01;8.75;8.75;6.25
34176;PMS7003;20450;49.074;9.158;2022-09-01T10:08:03;10.00;10.00;8.00
34176;PMS7003;20450;49.074;9.158;2022-09-01T10:10:38;8.75;8.75;7.50
34176;PMS7003;20450;49.074;9.158;2022-09-01T10:13:10;11.00;11.00;7.50
34176;PMS7003;20450;49.074;9.158;2022-09-01T10:15:40;9.75;9.25;7.50
34176;PMS7003;20450;49.074;9.158;2022-09-01T10:18:19;8.20;8.20;6.00
34176;PMS7003;20450;49.074;9.158;2022-09-01T10:21:03;10.40;9.00;7.00
34176;PMS7003;20450;49.074;9.158;2022-09-01T10:23:40;8.80;8.80;8.00
34176;PMS7003;20450;49.074;9.158;2022-09-01T10:26:10;9.50;9.25;8.00
34176;PMS7003;20450;49.074;9.158;2022-09-01T10:28:45;9.00;9.00;7.80
34176;PMS7003;20450;49.074;9.158;2022-09-01T10:31:20;8.80;8.80;6.80
34176;PMS7003;20450;49.074;9.158;2022-09-01T10:33:55;9.00;9.00;7.60
34176;PMS7003;20450;49.074;9.158;2022-09-01T10:36:24;7.40;6.40;5.40
34176;PMS7003;20450;49.074;9.158;2022-09-01T10:38:53;6.40;6.40;5.80
34176;PMS7003;20450;49.074;9.158;2022-09-01T10:41:45;9.00;7.60;6.80
34176;PMS7003;20450;49.074;9.158;2022-09-01T10:44:26;7.20;7.20;6.00
34176;PMS7003;20450;49.074;9.158;2022-09-01T10:46:57;7.80;7.80;6.60
34176;PMS7003;20450;49.074;9.158;2022-09-01T10:55:35;6.60;6.60;5.40
34176;PMS7003;20450;49.074;9.158;2022-09-01T11:05:10;5.20;5.20;4.00
34176;PMS7003;20450;49.074;9.158;2022-09-01T11:07:42;8.20;7.00;5.20
34176;PMS7003;20450;49.074;9.158;2022-09-01T11:10:41;5.60;5.60;5.20
34176;PMS7003;20450;49.074;9.158;2022-09-01T11:16:24;5.60;5.60;4.40
34176;PMS7003;20450;49.074;9.158;2022-09-01T11:22:22;7.40;7.40;5.40
34176;PMS7003;20450;49.074;9.158;2022-09-01T11:25:05;8.00;8.00;6.80
34176;PMS7003;20450;49.074;9.158;2022-09-01T11:28:07;6.40;6.40;5.80
34176;PMS7003;20450;49.074;9.158;2022-09-01T11:31:10;6.80;5.60;5.00
34176;PMS7003;20450;49.074;9.158;2022-09-01T11:33:55;5.20;5.20;4.20
34176;PMS7003;20450;49.074;9.158;2022-09-01T11:36:36;7.00;7.00;6.00
34176;PMS7003;20450;49.074;9.158;2022-09-01T11:39:23;6.00;6.00;5.40
34176;PMS7003;20450;49.074;9.158;2022-09-01T11:42:00;0.00;0.00;0.00
34176;PMS7003;20450;49.074;9.158;2022-09-01T11:44:40;7.80;7.80;6.60
34176;PMS7003;20450;49.074;9.158;2022-09-01T11:47:16;7.80;7.20;6.00
34176;PMS7003;20450;49.074;9.158;2022-09-01T11:49:50;7.40;7.40;6.00
34176;PMS7003;20450;49.074;9.158;2022-09-01T11:52:23;7.00;7.00;6.60
34176;PMS7003;20450;49.074;9.158;2022-09-01T11:55:45;5.80;5.80;4.80
34176;PMS7003;20450;49.074;9.158;2022-09-01T11:58:27;6.80;6.00;5.00
34176;PMS7003;20450;49.074;9.158;2022-09-01T12:01:11;7.40;7.40;6.40
34176;PMS7003;20450;49.074;9.158;2022-09-01T12:03:45;8.60;7.80;6.00
34176;PMS7003;20450;49.074;9.158;2022-09-01T12:06:20;6.80;6.80;5.60
34176;PMS7003;20450;49.074;9.158;2022-09-01T12:08:51;6.00;6.00;5.20
34176;PMS7003;20450;49.074;9.158;2022-09-01T12:11:24;8.60;8.60;6.20
34176;PMS7003;20450;49.074;9.158;2022-09-01T12:13:56;8.80;8.80;7.40
34176;PMS7003;20450;49.074;9.158;2022-09-01T12:16:29;6.20;6.20;5.40
34176;PMS7003;20450;49.074;9.158;2022-09-01T12:19:00;6.20;6.00;6.00
34176;PMS7003;20450;49.074;9.158;2022-09-01T12:21:29;5.00;5.00;4.00
34176;PMS7003;20450;49.074;9.158;2022-09-01T12:24:11;5.40;5.40;5.00
34176;PMS7003;20450;49.074;9.158;2022-09-01T12:26:43;6.60;6.60;5.20
34176;PMS7003;20450;49.074;9.158;2022-09-01T12:29:13;6.60;5.20;4.60
34176;PMS7003;20450;49.074;9.158;2022-09-01T12:31:43;6.80;6.40;4.60
34176;PMS7003;20450;49.074;9.158;2022-09-01T12:34:23;5.60;5.60;4.00
34176;PMS7003;20450;49.074;9.158;2022-09-01T12:37:05;5.80;5.80;5.00
34176;PMS7003;20450;49.074;9.158;2022-09-01T12:39:37;6.20;6.20;5.60
34176;PMS7003;20450;49.074;9.158;2022-09-01T12:42:10;7.20;7.20;6.00
34176;PMS7003;20450;49.074;9.158;2022-09-01T12:44:49;6.20;6.20;5.00
34176;PMS7003;20450;49.074;9.158;2022-09-01T12:50:39;6.00;6.00;5.00
34176;PMS7003;20450;49.074;9.158;2022-09-01T12:53:16;6.60;6.60;4.80
34176;PMS7003;20450;49.074;9.158;2022-09-01T12:56:02;7.00;7.00;6.00
34176;PMS7003;20450;49.074;9.158;2022-09-01T12:58:46;6.20;6.20;5.20
34176;PMS7003;20450;49.074;9.158;2022-09-01T13:01:23;7.20;6.20;5.40
34176;PMS7003;20450;49.074;9.158;2022-09-01T13:06:59;5.60;5.60;5.00
34176;PMS7003;20450;49.074;9.158;2022-09-01T13:09:30;6.40;6.40;5.40
34176;PMS7003;20450;49.074;9.158;2022-09-01T13:12:10;5.20;5.00;4.00
34176;PMS7003;20450;49.074;9.158;2022-09-01T13:14:42;5.60;5.60;5.00
34176;PMS7003;20450;49.074;9.158;2022-09-01T13:17:11;6.80;6.00;5.00
34176;PMS7003;20450;49.074;9.158;2022-09-01T13:19:41;6.60;6.60;6.20
34176;PMS7003;20450;49.074;9.158;2022-09-01T13:22:08;8.00;8.00;6.60
34176;PMS7003;20450;49.074;9.158;2022-09-01T13:24:36;7.60;7.60;6.80
34176;PMS7003;20450;49.074;9.158;2022-09-01T13:27:03;8.60;8.60;7.00
34176;PMS7003;20450;49.074;9.158;2022-09-01T13:29:47;8.60;8.60;6.40
34176;PMS7003;20450;49.074;9.158;2022-09-01T13:32:19;7.60;7.60;6.00
34176;PMS7003;20450;49.074;9.158;2022-09-01T13:35:55;9.80;9.80;8.00
34176;PMS7003;20450;49.074;9.158;2022-09-01T13:38:23;8.20;8.20;7.60
34176;PMS7003;20450;49.074;9.158;2022-09-01T13:40:53;8.20;8.20;7.20
34176;PMS7003;20450;49.074;9.158;2022-09-01T13:43:23;7.00;7.00;6.00
34176;PMS7003;20450;49.074;9.158;2022-09-01T13:46:00;8.00;8.00;6.60
34176;PMS7003;20450;49.074;9.158;2022-09-01T13:48:27;11.20;9.00;7.00
34176;PMS7003;20450;49.074;9.158;2022-09-01T13:54:09;8.00;8.00;7.00
34176;PMS7003;20450;49.074;9.158;2022-09-01T13:56:36;6.20;6.20;5.00
34176;PMS7003;20450;49.074;9.158;2022-09-01T13:59:03;9.20;9.20;7.00
34176;PMS7003;20450;49.074;9.158;2022-09-01T14:01:29;8.20;8.20;7.20
34176;PMS7003;20450;49.074;9.158;2022-09-01T14:03:56;6.00;6.00;5.00
34176;PMS7003;20450;49.074;9.158;2022-09-01T14:06:26;7.80;7.80;6.00
34176;PMS7003;20450;49.074;9.158;2022-09-01T14:08:55;7.20;7.20;7.00
34176;PMS7003;20450;49.074;9.158;2022-09-01T14:11:22;8.40;7.60;7.00
34176;PMS7003;20450;49.074;9.158;2022-09-01T14:13:49;8.60;8.20;7.00
34176;PMS7003;20450;49.074;9.158;2022-09-01T14:16:16;11.80;11.60;8.40
34176;PMS7003;20450;49.074;9.158;2022-09-01T14:18:43;8.00;8.00;7.00
34176;PMS7003;20450;49.074;9.158;2022-09-01T14:21:11;6.80;6.80;5.20
34176;PMS7003;20450;49.074;9.158;2022-09-01T14:23:39;6.40;6.40;6.00
34176;PMS7003;20450;49.074;9.158;2022-09-01T14:26:09;7.00;7.00;6.60
34176;PMS7003;20450;49.074;9.158;2022-09-01T14:28:44;6.40;6.40;4.80
34176;PMS7003;20450;49.074;9.158;2022-09-01T14:31:17;8.00;7.20;6.20
34176;PMS7003;20450;49.074;9.158;2022-09-01T14:33:48;8.00;8.00;7.00
34176;PMS7003;20450;49.074;9.158;2022-09-01T14:36:17;7.00;7.00;6.00
34176;PMS7003;20450;49.074;9.158;2022-09-01T14:38:48;6.60;6.60;6.00
34176;PMS7003;20450;49.074;9.158;2022-09-01T14:41:18;5.80;5.80;5.00
34176;PMS7003;20450;49.074;9.158;2022-09-01T14:43:49;5.80;5.80;5.40
34176;PMS7003;20450;49.074;9.158;2022-09-01T14:46:17;5.80;5.80;5.40
34176;PMS7003;20450;49.074;9.158;2022-09-01T14:48:46;6.60;6.20;5.20
34176;PMS7003;20450;49.074;9.158;2022-09-01T14:51:18;6.00;6.00;5.00
34176;PMS7003;20450;49.074;9.158;2022-09-01T14:53:50;4.60;4.60;4.20
34176;PMS7003;20450;49.074;9.158;2022-09-01T14:56:19;5.00;5.00;5.00
34176;PMS7003;20450;49.074;9.158;2022-09-01T14:58:49;7.40;6.40;5.00
34176;PMS7003;20450;49.074;9.158;2022-09-01T15:01:19;6.40;5.20;5.00
34176;PMS7003;20450;49.074;9.158;2022-09-01T15:04:00;5.60;4.80;3.80
34176;PMS7003;20450;49.074;9.158;2022-09-01T15:06:28;5.60;5.60;5.00
34176;PMS7003;20450;49.074;9.158;2022-09-01T15:08:55;5.00;5.00;4.00
34176;PMS7003;20450;49.074;9.158;2022-09-01T15:11:23;6.40;6.40;5.40
34176;PMS7003;20450;49.074;9.158;2022-09-01T15:13:50;7.20;7.20;6.00
34176;PMS7003;20450;49.074;9.158;2022-09-01T15:16:18;6.80;6.80;5.60
34176;PMS7003;20450;49.074;9.158;2022-09-01T15:18:53;6.00;6.00;5.00
34176;PMS7003;20450;49.074;9.158;2022-09-01T15:21:29;4.40;1.80;1.60
34176;PMS7003;20450;49.074;9.158;2022-09-01T15:23:57;5.00;5.00;4.20
34176;PMS7003;20450;49.074;9.158;2022-09-01T15:26:27;5.60;5.60;4.60
34176;PMS7003;20450;49.074;9.158;2022-09-01T15:28:58;4.20;4.20;4.00
34176;PMS7003;20450;49.074;9.158;2022-09-01T15:31:27;5.00;5.00;4.60
34176;PMS7003;20450;49.074;9.158;2022-09-01T15:33:59;5.60;5.60;5.60
34176;PMS7003;20450;49.074;9.158;2022-09-01T15:36:30;6.80;6.00;4.80
34176;PMS7003;20450;49.074;9.158;2022-09-01T15:39:01;6.60;6.60;6.00
34176;PMS7003;20450;49.074;9.158;2022-09-01T15:41:30;4.20;4.20;3.80
34176;PMS7003;20450;49.074;9.158;2022-09-01T15:43:58;5.00;5.00;4.80
34176;PMS7003;20450;49.074;9.158;2022-09-01T15:46:27;4.40;4.40;4.20
34176;PMS7003;20450;49.074;9.158;2022-09-01T15:48:54;5.20;4.20;3.20
34176;PMS7003;20450;49.074;9.158;2022-09-01T15:51:27;5.00;5.00;5.00
34176;PMS7003;20450;49.074;9.158;2022-09-01T15:55:31;5.00;5.00;4.20
34176;PMS7003;20450;49.074;9.158;2022-09-01T15:58:32;5.40;5.40;5.00
34176;PMS7003;20450;49.074;9.158;2022-09-01T16:02:17;5.20;5.20;4.60
34176;PMS7003;20450;49.074;9.158;2022-09-01T16:04:44;6.60;6.40;4.60
34176;PMS7003;20450;49.074;9.158;2022-09-01T16:07:11;6.20;6.20;6.00
34176;PMS7003;20450;49.074;9.158;2022-09-01T16:09:41;5.40;5.40;4.80
34176;PMS7003;20450;49.074;9.158;2022-09-01T16:12:08;6.00;5.00;5.00
34176;PMS7003;20450;49.074;9.158;2022-09-01T16:14:36;4.00;4.00;3.80
34176;PMS7003;20450;49.074;9.158;2022-09-01T16:17:04;9.80;7.00;6.00
34176;PMS7003;20450;49.074;9.158;2022-09-01T16:19:46;6.00;6.00;5.60